<?xml version="1.0" encoding="UTF-8" standalone="no" ?>
<gpx xmlns="http://www.topografix.com/GPX/1/1" xmlns:xsi="http://www.w3.org/2001/XMLSchema-instance" xsi:schemaLocation="http://www.topografix.com/GPX/1/1 http://www.topografix.com/GPX/1/1/gpx.xsd" version="1.1" creator="VisuGPX - https://www.visugpx.com">
  <metadata>
    <name>Etape 4-1_Col de Mente</name>
  </metadata>
  <trk>
    <name><![CDATA[Etape 4_Bagnères de Luchon _Ercé_Variante 127 kms_3075 D+ ]]></name>
    <extensions>
      <line xmlns="http://www.topografix.com/GPX/gpx_style/0/2">
        <color>0000FF</color>
        <width>4</width>
      </line>
    </extensions>
    <trkseg>
      <trkpt lat="42.91231" lon="0.69244">
        <ele>503</ele>
        <time>2021-08-20T17:03:56Z</time>
      </trkpt>
      <trkpt lat="42.9122" lon="0.69277">
        <ele>503</ele>
        <time>2021-08-20T17:04:01Z</time>
      </trkpt>
      <trkpt lat="42.91219" lon="0.6928">
        <ele>503</ele>
        <time>2021-08-20T17:04:02Z</time>
      </trkpt>
      <trkpt lat="42.91186" lon="0.69386">
        <ele>505</ele>
        <time>2021-08-20T17:04:17Z</time>
      </trkpt>
      <trkpt lat="42.91165" lon="0.69453">
        <ele>504</ele>
        <time>2021-08-20T17:04:26Z</time>
      </trkpt>
      <trkpt lat="42.91146" lon="0.69512">
        <ele>504</ele>
        <time>2021-08-20T17:04:34Z</time>
      </trkpt>
      <trkpt lat="42.9114" lon="0.69533">
        <ele>506</ele>
        <time>2021-08-20T17:04:37Z</time>
      </trkpt>
      <trkpt lat="42.91135" lon="0.69553">
        <ele>508</ele>
        <time>2021-08-20T17:04:40Z</time>
      </trkpt>
      <trkpt lat="42.91129" lon="0.69569">
        <ele>509</ele>
        <time>2021-08-20T17:04:42Z</time>
      </trkpt>
      <trkpt lat="42.91127" lon="0.69598">
        <ele>513</ele>
        <time>2021-08-20T17:04:46Z</time>
      </trkpt>
      <trkpt lat="42.91138" lon="0.69634">
        <ele>520</ele>
        <time>2021-08-20T17:04:51Z</time>
      </trkpt>
      <trkpt lat="42.91148" lon="0.69671">
        <ele>529</ele>
        <time>2021-08-20T17:04:56Z</time>
      </trkpt>
      <trkpt lat="42.91148" lon="0.69695">
        <ele>535</ele>
        <time>2021-08-20T17:05:00Z</time>
      </trkpt>
      <trkpt lat="42.91143" lon="0.6973">
        <ele>543</ele>
        <time>2021-08-20T17:05:04Z</time>
      </trkpt>
      <trkpt lat="42.91137" lon="0.69752">
        <ele>545</ele>
        <time>2021-08-20T17:05:07Z</time>
      </trkpt>
      <trkpt lat="42.91117" lon="0.69801">
        <ele>543</ele>
        <time>2021-08-20T17:05:15Z</time>
      </trkpt>
      <trkpt lat="42.91112" lon="0.6982">
        <ele>543</ele>
        <time>2021-08-20T17:05:17Z</time>
      </trkpt>
      <trkpt lat="42.91109" lon="0.69838">
        <ele>544</ele>
        <time>2021-08-20T17:05:20Z</time>
      </trkpt>
      <trkpt lat="42.91108" lon="0.6988">
        <ele>551</ele>
        <time>2021-08-20T17:05:25Z</time>
      </trkpt>
      <trkpt lat="42.91094" lon="0.69926">
        <ele>550</ele>
        <time>2021-08-20T17:05:32Z</time>
      </trkpt>
      <trkpt lat="42.91089" lon="0.69951">
        <ele>549</ele>
        <time>2021-08-20T17:05:35Z</time>
      </trkpt>
      <trkpt lat="42.91091" lon="0.6999">
        <ele>553</ele>
        <time>2021-08-20T17:05:40Z</time>
      </trkpt>
      <trkpt lat="42.9109" lon="0.7002">
        <ele>555</ele>
        <time>2021-08-20T17:05:44Z</time>
      </trkpt>
      <trkpt lat="42.91075" lon="0.70069">
        <ele>556</ele>
        <time>2021-08-20T17:05:51Z</time>
      </trkpt>
      <trkpt lat="42.91064" lon="0.70097">
        <ele>556</ele>
        <time>2021-08-20T17:05:55Z</time>
      </trkpt>
      <trkpt lat="42.91044" lon="0.70135">
        <ele>554</ele>
        <time>2021-08-20T17:06:01Z</time>
      </trkpt>
      <trkpt lat="42.91041" lon="0.70172">
        <ele>557</ele>
        <time>2021-08-20T17:06:06Z</time>
      </trkpt>
      <trkpt lat="42.91044" lon="0.70203">
        <ele>560</ele>
        <time>2021-08-20T17:06:10Z</time>
      </trkpt>
      <trkpt lat="42.91057" lon="0.7025">
        <ele>567</ele>
        <time>2021-08-20T17:06:17Z</time>
      </trkpt>
      <trkpt lat="42.91063" lon="0.70301">
        <ele>568</ele>
        <time>2021-08-20T17:06:23Z</time>
      </trkpt>
      <trkpt lat="42.91074" lon="0.70329">
        <ele>571</ele>
        <time>2021-08-20T17:06:28Z</time>
      </trkpt>
      <trkpt lat="42.9109" lon="0.70356">
        <ele>576</ele>
        <time>2021-08-20T17:06:32Z</time>
      </trkpt>
      <trkpt lat="42.91098" lon="0.70389">
        <ele>581</ele>
        <time>2021-08-20T17:06:37Z</time>
      </trkpt>
      <trkpt lat="42.91108" lon="0.70495">
        <ele>584</ele>
        <time>2021-08-20T17:06:50Z</time>
      </trkpt>
      <trkpt lat="42.91119" lon="0.70572">
        <ele>589</ele>
        <time>2021-08-20T17:07:01Z</time>
      </trkpt>
      <trkpt lat="42.91125" lon="0.70602">
        <ele>592</ele>
        <time>2021-08-20T17:07:05Z</time>
      </trkpt>
      <trkpt lat="42.9114" lon="0.70641">
        <ele>599</ele>
        <time>2021-08-20T17:07:11Z</time>
      </trkpt>
      <trkpt lat="42.91172" lon="0.70698">
        <ele>610</ele>
        <time>2021-08-20T17:07:20Z</time>
      </trkpt>
      <trkpt lat="42.91181" lon="0.70732">
        <ele>612</ele>
        <time>2021-08-20T17:07:25Z</time>
      </trkpt>
      <trkpt lat="42.91185" lon="0.7075">
        <ele>614</ele>
        <time>2021-08-20T17:07:27Z</time>
      </trkpt>
      <trkpt lat="42.91194" lon="0.7079">
        <ele>616</ele>
        <time>2021-08-20T17:07:32Z</time>
      </trkpt>
      <trkpt lat="42.91203" lon="0.70811">
        <ele>618</ele>
        <time>2021-08-20T17:07:36Z</time>
      </trkpt>
      <trkpt lat="42.9122" lon="0.70823">
        <ele>623</ele>
        <time>2021-08-20T17:07:39Z</time>
      </trkpt>
      <trkpt lat="42.91253" lon="0.70842">
        <ele>633</ele>
        <time>2021-08-20T17:07:45Z</time>
      </trkpt>
      <trkpt lat="42.91261" lon="0.70849">
        <ele>637</ele>
        <time>2021-08-20T17:07:47Z</time>
      </trkpt>
      <trkpt lat="42.91266" lon="0.70864">
        <ele>638</ele>
        <time>2021-08-20T17:07:49Z</time>
      </trkpt>
      <trkpt lat="42.91265" lon="0.70876">
        <ele>638</ele>
        <time>2021-08-20T17:07:51Z</time>
      </trkpt>
      <trkpt lat="42.91259" lon="0.70901">
        <ele>635</ele>
        <time>2021-08-20T17:07:54Z</time>
      </trkpt>
      <trkpt lat="42.91246" lon="0.70941">
        <ele>633</ele>
        <time>2021-08-20T17:08:00Z</time>
      </trkpt>
      <trkpt lat="42.91244" lon="0.70983">
        <ele>637</ele>
        <time>2021-08-20T17:08:05Z</time>
      </trkpt>
      <trkpt lat="42.91257" lon="0.71078">
        <ele>645</ele>
        <time>2021-08-20T17:08:18Z</time>
      </trkpt>
      <trkpt lat="42.91269" lon="0.71126">
        <ele>646</ele>
        <time>2021-08-20T17:08:25Z</time>
      </trkpt>
      <trkpt lat="42.91288" lon="0.71149">
        <ele>650</ele>
        <time>2021-08-20T17:08:29Z</time>
      </trkpt>
      <trkpt lat="42.91322" lon="0.71185">
        <ele>658</ele>
        <time>2021-08-20T17:08:37Z</time>
      </trkpt>
      <trkpt lat="42.91337" lon="0.71207">
        <ele>660</ele>
        <time>2021-08-20T17:08:41Z</time>
      </trkpt>
      <trkpt lat="42.91357" lon="0.71227">
        <ele>665</ele>
        <time>2021-08-20T17:08:45Z</time>
      </trkpt>
      <trkpt lat="42.91396" lon="0.71298">
        <ele>668</ele>
        <time>2021-08-20T17:08:57Z</time>
      </trkpt>
      <trkpt lat="42.91414" lon="0.71322">
        <ele>669</ele>
        <time>2021-08-20T17:09:01Z</time>
      </trkpt>
      <trkpt lat="42.91433" lon="0.71336">
        <ele>673</ele>
        <time>2021-08-20T17:09:05Z</time>
      </trkpt>
      <trkpt lat="42.91454" lon="0.71349">
        <ele>677</ele>
        <time>2021-08-20T17:09:09Z</time>
      </trkpt>
      <trkpt lat="42.91534" lon="0.71385">
        <ele>694</ele>
        <time>2021-08-20T17:09:24Z</time>
      </trkpt>
      <trkpt lat="42.91552" lon="0.71403">
        <ele>694</ele>
        <time>2021-08-20T17:09:28Z</time>
      </trkpt>
      <trkpt lat="42.91606" lon="0.71447">
        <ele>703</ele>
        <time>2021-08-20T17:09:39Z</time>
      </trkpt>
      <trkpt lat="42.91623" lon="0.7148">
        <ele>701</ele>
        <time>2021-08-20T17:09:45Z</time>
      </trkpt>
      <trkpt lat="42.91626" lon="0.71522">
        <ele>696</ele>
        <time>2021-08-20T17:09:50Z</time>
      </trkpt>
      <trkpt lat="42.91644" lon="0.71581">
        <ele>698</ele>
        <time>2021-08-20T17:09:58Z</time>
      </trkpt>
      <trkpt lat="42.91658" lon="0.71613">
        <ele>701</ele>
        <time>2021-08-20T17:10:03Z</time>
      </trkpt>
      <trkpt lat="42.91679" lon="0.71661">
        <ele>702</ele>
        <time>2021-08-20T17:10:11Z</time>
      </trkpt>
      <trkpt lat="42.91713" lon="0.71748">
        <ele>711</ele>
        <time>2021-08-20T17:10:23Z</time>
      </trkpt>
      <trkpt lat="42.91722" lon="0.71766">
        <ele>714</ele>
        <time>2021-08-20T17:10:26Z</time>
      </trkpt>
      <trkpt lat="42.91735" lon="0.7178">
        <ele>717</ele>
        <time>2021-08-20T17:10:29Z</time>
      </trkpt>
      <trkpt lat="42.91751" lon="0.71794">
        <ele>720</ele>
        <time>2021-08-20T17:10:33Z</time>
      </trkpt>
      <trkpt lat="42.91759" lon="0.71795">
        <ele>721</ele>
        <time>2021-08-20T17:10:34Z</time>
      </trkpt>
      <trkpt lat="42.91803" lon="0.71803">
        <ele>723</ele>
        <time>2021-08-20T17:10:42Z</time>
      </trkpt>
      <trkpt lat="42.91823" lon="0.71806">
        <ele>724</ele>
        <time>2021-08-20T17:10:45Z</time>
      </trkpt>
      <trkpt lat="42.91838" lon="0.71801">
        <ele>724</ele>
        <time>2021-08-20T17:10:48Z</time>
      </trkpt>
      <trkpt lat="42.91854" lon="0.71791">
        <ele>724</ele>
        <time>2021-08-20T17:10:51Z</time>
      </trkpt>
      <trkpt lat="42.91865" lon="0.71788">
        <ele>724</ele>
        <time>2021-08-20T17:10:53Z</time>
      </trkpt>
      <trkpt lat="42.91884" lon="0.71792">
        <ele>725</ele>
        <time>2021-08-20T17:10:57Z</time>
      </trkpt>
      <trkpt lat="42.9192" lon="0.71798">
        <ele>728</ele>
        <time>2021-08-20T17:11:03Z</time>
      </trkpt>
      <trkpt lat="42.91942" lon="0.71807">
        <ele>732</ele>
        <time>2021-08-20T17:11:07Z</time>
      </trkpt>
      <trkpt lat="42.9195" lon="0.71812">
        <ele>733</ele>
        <time>2021-08-20T17:11:09Z</time>
      </trkpt>
      <trkpt lat="42.91977" lon="0.71829">
        <ele>737</ele>
        <time>2021-08-20T17:11:14Z</time>
      </trkpt>
      <trkpt lat="42.91997" lon="0.71848">
        <ele>740</ele>
        <time>2021-08-20T17:11:18Z</time>
      </trkpt>
      <trkpt lat="42.92011" lon="0.71866">
        <ele>743</ele>
        <time>2021-08-20T17:11:22Z</time>
      </trkpt>
      <trkpt lat="42.92037" lon="0.71912">
        <ele>751</ele>
        <time>2021-08-20T17:11:29Z</time>
      </trkpt>
      <trkpt lat="42.92079" lon="0.72001">
        <ele>759</ele>
        <time>2021-08-20T17:11:43Z</time>
      </trkpt>
      <trkpt lat="42.92085" lon="0.72041">
        <ele>760</ele>
        <time>2021-08-20T17:11:49Z</time>
      </trkpt>
      <trkpt lat="42.92082" lon="0.72075">
        <ele>759</ele>
        <time>2021-08-20T17:11:53Z</time>
      </trkpt>
      <trkpt lat="42.9207" lon="0.72105">
        <ele>762</ele>
        <time>2021-08-20T17:11:58Z</time>
      </trkpt>
      <trkpt lat="42.9203" lon="0.72156">
        <ele>767</ele>
        <time>2021-08-20T17:12:07Z</time>
      </trkpt>
      <trkpt lat="42.92027" lon="0.72172">
        <ele>769</ele>
        <time>2021-08-20T17:12:09Z</time>
      </trkpt>
      <trkpt lat="42.92035" lon="0.72185">
        <ele>773</ele>
        <time>2021-08-20T17:12:12Z</time>
      </trkpt>
      <trkpt lat="42.92068" lon="0.72186">
        <ele>777</ele>
        <time>2021-08-20T17:12:17Z</time>
      </trkpt>
      <trkpt lat="42.92102" lon="0.72179">
        <ele>780</ele>
        <time>2021-08-20T17:12:24Z</time>
      </trkpt>
      <trkpt lat="42.92145" lon="0.7216">
        <ele>784</ele>
        <time>2021-08-20T17:12:32Z</time>
      </trkpt>
      <trkpt lat="42.92201" lon="0.72117">
        <ele>793</ele>
        <time>2021-08-20T17:12:43Z</time>
      </trkpt>
      <trkpt lat="42.92216" lon="0.72097">
        <ele>794</ele>
        <time>2021-08-20T17:12:47Z</time>
      </trkpt>
      <trkpt lat="42.9222" lon="0.72087">
        <ele>793</ele>
        <time>2021-08-20T17:12:48Z</time>
      </trkpt>
      <trkpt lat="42.92221" lon="0.7204">
        <ele>792</ele>
        <time>2021-08-20T17:12:54Z</time>
      </trkpt>
      <trkpt lat="42.92226" lon="0.72014">
        <ele>793</ele>
        <time>2021-08-20T17:12:58Z</time>
      </trkpt>
      <trkpt lat="42.9224" lon="0.71999">
        <ele>795</ele>
        <time>2021-08-20T17:13:01Z</time>
      </trkpt>
      <trkpt lat="42.92255" lon="0.71994">
        <ele>797</ele>
        <time>2021-08-20T17:13:04Z</time>
      </trkpt>
      <trkpt lat="42.92265" lon="0.72">
        <ele>798</ele>
        <time>2021-08-20T17:13:06Z</time>
      </trkpt>
      <trkpt lat="42.92277" lon="0.72031">
        <ele>802</ele>
        <time>2021-08-20T17:13:10Z</time>
      </trkpt>
      <trkpt lat="42.9228" lon="0.72077">
        <ele>806</ele>
        <time>2021-08-20T17:13:16Z</time>
      </trkpt>
      <trkpt lat="42.92278" lon="0.72116">
        <ele>814</ele>
        <time>2021-08-20T17:13:21Z</time>
      </trkpt>
      <trkpt lat="42.92259" lon="0.72161">
        <ele>820</ele>
        <time>2021-08-20T17:13:28Z</time>
      </trkpt>
      <trkpt lat="42.92204" lon="0.72223">
        <ele>822</ele>
        <time>2021-08-20T17:13:41Z</time>
      </trkpt>
      <trkpt lat="42.92175" lon="0.72265">
        <ele>825</ele>
        <time>2021-08-20T17:13:48Z</time>
      </trkpt>
      <trkpt lat="42.92108" lon="0.72381">
        <ele>839</ele>
        <time>2021-08-20T17:14:08Z</time>
      </trkpt>
      <trkpt lat="42.92011" lon="0.72467">
        <ele>850</ele>
        <time>2021-08-20T17:14:28Z</time>
      </trkpt>
      <trkpt lat="42.91986" lon="0.72492">
        <ele>853</ele>
        <time>2021-08-20T17:14:34Z</time>
      </trkpt>
      <trkpt lat="42.91954" lon="0.7253">
        <ele>856</ele>
        <time>2021-08-20T17:14:41Z</time>
      </trkpt>
      <trkpt lat="42.9192" lon="0.72599">
        <ele>861</ele>
        <time>2021-08-20T17:14:52Z</time>
      </trkpt>
      <trkpt lat="42.9191" lon="0.72637">
        <ele>864</ele>
        <time>2021-08-20T17:14:57Z</time>
      </trkpt>
      <trkpt lat="42.91906" lon="0.72684">
        <ele>869</ele>
        <time>2021-08-20T17:15:04Z</time>
      </trkpt>
      <trkpt lat="42.91903" lon="0.72774">
        <ele>878</ele>
        <time>2021-08-20T17:15:15Z</time>
      </trkpt>
      <trkpt lat="42.91862" lon="0.72889">
        <ele>880</ele>
        <time>2021-08-20T17:15:32Z</time>
      </trkpt>
      <trkpt lat="42.91845" lon="0.72956">
        <ele>888</ele>
        <time>2021-08-20T17:15:41Z</time>
      </trkpt>
      <trkpt lat="42.91836" lon="0.73012">
        <ele>896</ele>
        <time>2021-08-20T17:15:49Z</time>
      </trkpt>
      <trkpt lat="42.91824" lon="0.73054">
        <ele>898</ele>
        <time>2021-08-20T17:15:55Z</time>
      </trkpt>
      <trkpt lat="42.91819" lon="0.7309">
        <ele>903</ele>
        <time>2021-08-20T17:15:59Z</time>
      </trkpt>
      <trkpt lat="42.91808" lon="0.73135">
        <ele>907</ele>
        <time>2021-08-20T17:16:06Z</time>
      </trkpt>
      <trkpt lat="42.91803" lon="0.73204">
        <ele>921</ele>
        <time>2021-08-20T17:16:15Z</time>
      </trkpt>
      <trkpt lat="42.91789" lon="0.7326">
        <ele>925</ele>
        <time>2021-08-20T17:16:22Z</time>
      </trkpt>
      <trkpt lat="42.91772" lon="0.73285">
        <ele>919</ele>
        <time>2021-08-20T17:16:27Z</time>
      </trkpt>
      <trkpt lat="42.91761" lon="0.73344">
        <ele>926</ele>
        <time>2021-08-20T17:16:35Z</time>
      </trkpt>
      <trkpt lat="42.91753" lon="0.73404">
        <ele>932</ele>
        <time>2021-08-20T17:16:43Z</time>
      </trkpt>
      <trkpt lat="42.9174" lon="0.73443">
        <ele>932</ele>
        <time>2021-08-20T17:16:48Z</time>
      </trkpt>
      <trkpt lat="42.91726" lon="0.73531">
        <ele>942</ele>
        <time>2021-08-20T17:17:00Z</time>
      </trkpt>
      <trkpt lat="42.91718" lon="0.73548">
        <ele>941</ele>
        <time>2021-08-20T17:17:03Z</time>
      </trkpt>
      <trkpt lat="42.91713" lon="0.73592">
        <ele>947</ele>
        <time>2021-08-20T17:17:08Z</time>
      </trkpt>
      <trkpt lat="42.91697" lon="0.73635">
        <ele>947</ele>
        <time>2021-08-20T17:17:15Z</time>
      </trkpt>
      <trkpt lat="42.91666" lon="0.73699">
        <ele>945</ele>
        <time>2021-08-20T17:17:25Z</time>
      </trkpt>
      <trkpt lat="42.91663" lon="0.73712">
        <ele>946</ele>
        <time>2021-08-20T17:17:26Z</time>
      </trkpt>
      <trkpt lat="42.91664" lon="0.73725">
        <ele>949</ele>
        <time>2021-08-20T17:17:28Z</time>
      </trkpt>
      <trkpt lat="42.91678" lon="0.73757">
        <ele>962</ele>
        <time>2021-08-20T17:17:33Z</time>
      </trkpt>
      <trkpt lat="42.91711" lon="0.73817">
        <ele>984</ele>
        <time>2021-08-20T17:17:43Z</time>
      </trkpt>
      <trkpt lat="42.91721" lon="0.73846">
        <ele>990</ele>
        <time>2021-08-20T17:17:47Z</time>
      </trkpt>
      <trkpt lat="42.91716" lon="0.73871">
        <ele>992</ele>
        <time>2021-08-20T17:17:50Z</time>
      </trkpt>
      <trkpt lat="42.91693" lon="0.73885">
        <ele>990</ele>
        <time>2021-08-20T17:17:55Z</time>
      </trkpt>
      <trkpt lat="42.91653" lon="0.73874">
        <ele>977</ele>
        <time>2021-08-20T17:18:02Z</time>
      </trkpt>
      <trkpt lat="42.91635" lon="0.73865">
        <ele>969</ele>
        <time>2021-08-20T17:18:05Z</time>
      </trkpt>
      <trkpt lat="42.9162" lon="0.73869">
        <ele>967</ele>
        <time>2021-08-20T17:18:08Z</time>
      </trkpt>
      <trkpt lat="42.91606" lon="0.7389">
        <ele>971</ele>
        <time>2021-08-20T17:18:12Z</time>
      </trkpt>
      <trkpt lat="42.91592" lon="0.73931">
        <ele>982</ele>
        <time>2021-08-20T17:18:18Z</time>
      </trkpt>
      <trkpt lat="42.91575" lon="0.73965">
        <ele>985</ele>
        <time>2021-08-20T17:18:23Z</time>
      </trkpt>
      <trkpt lat="42.9157" lon="0.74004">
        <ele>993</ele>
        <time>2021-08-20T17:18:28Z</time>
      </trkpt>
      <trkpt lat="42.91571" lon="0.74034">
        <ele>997</ele>
        <time>2021-08-20T17:18:32Z</time>
      </trkpt>
      <trkpt lat="42.91589" lon="0.74107">
        <ele>1017</ele>
        <time>2021-08-20T17:18:42Z</time>
      </trkpt>
      <trkpt lat="42.91587" lon="0.74141">
        <ele>1022</ele>
        <time>2021-08-20T17:18:47Z</time>
      </trkpt>
      <trkpt lat="42.91579" lon="0.74157">
        <ele>1021</ele>
        <time>2021-08-20T17:18:49Z</time>
      </trkpt>
      <trkpt lat="42.91549" lon="0.74177">
        <ele>1012</ele>
        <time>2021-08-20T17:18:55Z</time>
      </trkpt>
      <trkpt lat="42.91544" lon="0.74186">
        <ele>1012</ele>
        <time>2021-08-20T17:18:57Z</time>
      </trkpt>
      <trkpt lat="42.91528" lon="0.74228">
        <ele>1014</ele>
        <time>2021-08-20T17:19:03Z</time>
      </trkpt>
      <trkpt lat="42.91518" lon="0.74275">
        <ele>1018</ele>
        <time>2021-08-20T17:19:09Z</time>
      </trkpt>
      <trkpt lat="42.91515" lon="0.74297">
        <ele>1021</ele>
        <time>2021-08-20T17:19:12Z</time>
      </trkpt>
      <trkpt lat="42.91506" lon="0.74341">
        <ele>1023</ele>
        <time>2021-08-20T17:19:18Z</time>
      </trkpt>
      <trkpt lat="42.91505" lon="0.74354">
        <ele>1024</ele>
        <time>2021-08-20T17:19:20Z</time>
      </trkpt>
      <trkpt lat="42.91505" lon="0.74424">
        <ele>1035</ele>
        <time>2021-08-20T17:19:29Z</time>
      </trkpt>
      <trkpt lat="42.91492" lon="0.74493">
        <ele>1036</ele>
        <time>2021-08-20T17:19:38Z</time>
      </trkpt>
      <trkpt lat="42.91489" lon="0.74532">
        <ele>1039</ele>
        <time>2021-08-20T17:19:43Z</time>
      </trkpt>
      <trkpt lat="42.9149" lon="0.7456">
        <ele>1042</ele>
        <time>2021-08-20T17:19:47Z</time>
      </trkpt>
      <trkpt lat="42.91494" lon="0.74567">
        <ele>1044</ele>
        <time>2021-08-20T17:19:48Z</time>
      </trkpt>
      <trkpt lat="42.91502" lon="0.74566">
        <ele>1047</ele>
        <time>2021-08-20T17:19:49Z</time>
      </trkpt>
      <trkpt lat="42.91505" lon="0.74562">
        <ele>1048</ele>
        <time>2021-08-20T17:19:50Z</time>
      </trkpt>
      <trkpt lat="42.91506" lon="0.74535">
        <ele>1046</ele>
        <time>2021-08-20T17:19:54Z</time>
      </trkpt>
      <trkpt lat="42.9151" lon="0.74509">
        <ele>1046</ele>
        <time>2021-08-20T17:19:57Z</time>
      </trkpt>
      <trkpt lat="42.91517" lon="0.74494">
        <ele>1049</ele>
        <time>2021-08-20T17:20:00Z</time>
      </trkpt>
      <trkpt lat="42.91534" lon="0.74468">
        <ele>1055</ele>
        <time>2021-08-20T17:20:04Z</time>
      </trkpt>
      <trkpt lat="42.91548" lon="0.74385">
        <ele>1054</ele>
        <time>2021-08-20T17:20:15Z</time>
      </trkpt>
      <trkpt lat="42.91552" lon="0.74378">
        <ele>1056</ele>
        <time>2021-08-20T17:20:16Z</time>
      </trkpt>
      <trkpt lat="42.91558" lon="0.74378">
        <ele>1059</ele>
        <time>2021-08-20T17:20:17Z</time>
      </trkpt>
      <trkpt lat="42.91563" lon="0.74386">
        <ele>1063</ele>
        <time>2021-08-20T17:20:19Z</time>
      </trkpt>
      <trkpt lat="42.91554" lon="0.7442">
        <ele>1062</ele>
        <time>2021-08-20T17:20:23Z</time>
      </trkpt>
      <trkpt lat="42.91556" lon="0.74497">
        <ele>1070</ele>
        <time>2021-08-20T17:20:34Z</time>
      </trkpt>
      <trkpt lat="42.91552" lon="0.74528">
        <ele>1070</ele>
        <time>2021-08-20T17:20:38Z</time>
      </trkpt>
      <trkpt lat="42.91561" lon="0.74611">
        <ele>1081</ele>
        <time>2021-08-20T17:20:49Z</time>
      </trkpt>
      <trkpt lat="42.91559" lon="0.74628">
        <ele>1082</ele>
        <time>2021-08-20T17:20:51Z</time>
      </trkpt>
      <trkpt lat="42.91545" lon="0.74662">
        <ele>1078</ele>
        <time>2021-08-20T17:20:56Z</time>
      </trkpt>
      <trkpt lat="42.91543" lon="0.74717">
        <ele>1084</ele>
        <time>2021-08-20T17:21:03Z</time>
      </trkpt>
      <trkpt lat="42.91535" lon="0.74772">
        <ele>1087</ele>
        <time>2021-08-20T17:21:10Z</time>
      </trkpt>
      <trkpt lat="42.91536" lon="0.7481">
        <ele>1091</ele>
        <time>2021-08-20T17:21:15Z</time>
      </trkpt>
      <trkpt lat="42.91525" lon="0.74917">
        <ele>1100</ele>
        <time>2021-08-20T17:21:29Z</time>
      </trkpt>
      <trkpt lat="42.91525" lon="0.74937">
        <ele>1102</ele>
        <time>2021-08-20T17:21:32Z</time>
      </trkpt>
      <trkpt lat="42.91531" lon="0.74967">
        <ele>1110</ele>
        <time>2021-08-20T17:21:36Z</time>
      </trkpt>
      <trkpt lat="42.91528" lon="0.75013">
        <ele>1113</ele>
        <time>2021-08-20T17:21:42Z</time>
      </trkpt>
      <trkpt lat="42.91529" lon="0.7503">
        <ele>1114</ele>
        <time>2021-08-20T17:21:44Z</time>
      </trkpt>
      <trkpt lat="42.91541" lon="0.7508">
        <ele>1123</ele>
        <time>2021-08-20T17:21:51Z</time>
      </trkpt>
      <trkpt lat="42.91543" lon="0.75102">
        <ele>1126</ele>
        <time>2021-08-20T17:21:54Z</time>
      </trkpt>
      <trkpt lat="42.9154" lon="0.75157">
        <ele>1131</ele>
        <time>2021-08-20T17:22:01Z</time>
      </trkpt>
      <trkpt lat="42.91537" lon="0.75167">
        <ele>1132</ele>
        <time>2021-08-20T17:22:03Z</time>
      </trkpt>
      <trkpt lat="42.91531" lon="0.75175">
        <ele>1133</ele>
        <time>2021-08-20T17:22:04Z</time>
      </trkpt>
      <trkpt lat="42.91524" lon="0.75177">
        <ele>1132</ele>
        <time>2021-08-20T17:22:05Z</time>
      </trkpt>
      <trkpt lat="42.91487" lon="0.75181">
        <ele>1127</ele>
        <time>2021-08-20T17:22:12Z</time>
      </trkpt>
      <trkpt lat="42.91447" lon="0.75199">
        <ele>1130</ele>
        <time>2021-08-20T17:22:20Z</time>
      </trkpt>
      <trkpt lat="42.91406" lon="0.75214">
        <ele>1129</ele>
        <time>2021-08-20T17:22:27Z</time>
      </trkpt>
      <trkpt lat="42.91394" lon="0.75222">
        <ele>1129</ele>
        <time>2021-08-20T17:22:29Z</time>
      </trkpt>
      <trkpt lat="42.91382" lon="0.75233">
        <ele>1129</ele>
        <time>2021-08-20T17:22:32Z</time>
      </trkpt>
      <trkpt lat="42.91373" lon="0.75245">
        <ele>1130</ele>
        <time>2021-08-20T17:22:34Z</time>
      </trkpt>
      <trkpt lat="42.91366" lon="0.75258">
        <ele>1131</ele>
        <time>2021-08-20T17:22:36Z</time>
      </trkpt>
      <trkpt lat="42.9136" lon="0.75274">
        <ele>1133</ele>
        <time>2021-08-20T17:22:39Z</time>
      </trkpt>
      <trkpt lat="42.91341" lon="0.75355">
        <ele>1141</ele>
        <time>2021-08-20T17:22:50Z</time>
      </trkpt>
      <trkpt lat="42.91337" lon="0.75368">
        <ele>1142</ele>
        <time>2021-08-20T17:22:52Z</time>
      </trkpt>
      <trkpt lat="42.91322" lon="0.75402">
        <ele>1146</ele>
        <time>2021-08-20T17:22:57Z</time>
      </trkpt>
      <trkpt lat="42.91323" lon="0.75407">
        <ele>1146</ele>
        <time>2021-08-20T17:22:57Z</time>
      </trkpt>
      <trkpt lat="42.91327" lon="0.75412">
        <ele>1147</ele>
        <time>2021-08-20T17:22:58Z</time>
      </trkpt>
      <trkpt lat="42.91333" lon="0.75412">
        <ele>1147</ele>
        <time>2021-08-20T17:22:59Z</time>
      </trkpt>
      <trkpt lat="42.9136" lon="0.75368">
        <ele>1149</ele>
        <time>2021-08-20T17:23:07Z</time>
      </trkpt>
      <trkpt lat="42.914" lon="0.75313">
        <ele>1153</ele>
        <time>2021-08-20T17:23:17Z</time>
      </trkpt>
      <trkpt lat="42.91407" lon="0.75305">
        <ele>1153</ele>
        <time>2021-08-20T17:23:19Z</time>
      </trkpt>
      <trkpt lat="42.91412" lon="0.75303">
        <ele>1154</ele>
        <time>2021-08-20T17:23:20Z</time>
      </trkpt>
      <trkpt lat="42.91416" lon="0.75303">
        <ele>1156</ele>
        <time>2021-08-20T17:23:20Z</time>
      </trkpt>
      <trkpt lat="42.9142" lon="0.7531">
        <ele>1158</ele>
        <time>2021-08-20T17:23:21Z</time>
      </trkpt>
      <trkpt lat="42.9142" lon="0.75315">
        <ele>1159</ele>
        <time>2021-08-20T17:23:22Z</time>
      </trkpt>
      <trkpt lat="42.91418" lon="0.7532">
        <ele>1160</ele>
        <time>2021-08-20T17:23:23Z</time>
      </trkpt>
      <trkpt lat="42.91408" lon="0.75337">
        <ele>1160</ele>
        <time>2021-08-20T17:23:26Z</time>
      </trkpt>
      <trkpt lat="42.91404" lon="0.75357">
        <ele>1161</ele>
        <time>2021-08-20T17:23:28Z</time>
      </trkpt>
      <trkpt lat="42.91404" lon="0.75406">
        <ele>1166</ele>
        <time>2021-08-20T17:23:35Z</time>
      </trkpt>
      <trkpt lat="42.91401" lon="0.75438">
        <ele>1168</ele>
        <time>2021-08-20T17:23:39Z</time>
      </trkpt>
      <trkpt lat="42.91393" lon="0.75467">
        <ele>1170</ele>
        <time>2021-08-20T17:23:43Z</time>
      </trkpt>
      <trkpt lat="42.91371" lon="0.755">
        <ele>1169</ele>
        <time>2021-08-20T17:23:49Z</time>
      </trkpt>
      <trkpt lat="42.91368" lon="0.75512">
        <ele>1171</ele>
        <time>2021-08-20T17:23:51Z</time>
      </trkpt>
      <trkpt lat="42.9137" lon="0.75516">
        <ele>1172</ele>
        <time>2021-08-20T17:23:51Z</time>
      </trkpt>
      <trkpt lat="42.91376" lon="0.75521">
        <ele>1174</ele>
        <time>2021-08-20T17:23:52Z</time>
      </trkpt>
      <trkpt lat="42.91383" lon="0.75518">
        <ele>1175</ele>
        <time>2021-08-20T17:23:54Z</time>
      </trkpt>
      <trkpt lat="42.91403" lon="0.75494">
        <ele>1175</ele>
        <time>2021-08-20T17:23:58Z</time>
      </trkpt>
      <trkpt lat="42.91434" lon="0.75467">
        <ele>1178</ele>
        <time>2021-08-20T17:24:05Z</time>
      </trkpt>
      <trkpt lat="42.91452" lon="0.75447">
        <ele>1178</ele>
        <time>2021-08-20T17:24:09Z</time>
      </trkpt>
      <trkpt lat="42.91456" lon="0.75445">
        <ele>1179</ele>
        <time>2021-08-20T17:24:10Z</time>
      </trkpt>
      <trkpt lat="42.9146" lon="0.75445">
        <ele>1179</ele>
        <time>2021-08-20T17:24:11Z</time>
      </trkpt>
      <trkpt lat="42.91465" lon="0.75451">
        <ele>1181</ele>
        <time>2021-08-20T17:24:12Z</time>
      </trkpt>
      <trkpt lat="42.91465" lon="0.75461">
        <ele>1182</ele>
        <time>2021-08-20T17:24:13Z</time>
      </trkpt>
      <trkpt lat="42.9145" lon="0.75479">
        <ele>1182</ele>
        <time>2021-08-20T17:24:17Z</time>
      </trkpt>
      <trkpt lat="42.91443" lon="0.75497">
        <ele>1183</ele>
        <time>2021-08-20T17:24:19Z</time>
      </trkpt>
      <trkpt lat="42.91428" lon="0.75584">
        <ele>1190</ele>
        <time>2021-08-20T17:24:31Z</time>
      </trkpt>
      <trkpt lat="42.91422" lon="0.75613">
        <ele>1193</ele>
        <time>2021-08-20T17:24:35Z</time>
      </trkpt>
      <trkpt lat="42.91413" lon="0.75638">
        <ele>1195</ele>
        <time>2021-08-20T17:24:38Z</time>
      </trkpt>
      <trkpt lat="42.91402" lon="0.75659">
        <ele>1199</ele>
        <time>2021-08-20T17:24:42Z</time>
      </trkpt>
      <trkpt lat="42.914" lon="0.7567">
        <ele>1201</ele>
        <time>2021-08-20T17:24:43Z</time>
      </trkpt>
      <trkpt lat="42.91401" lon="0.75675">
        <ele>1202</ele>
        <time>2021-08-20T17:24:44Z</time>
      </trkpt>
      <trkpt lat="42.91407" lon="0.75682">
        <ele>1203</ele>
        <time>2021-08-20T17:24:45Z</time>
      </trkpt>
      <trkpt lat="42.91416" lon="0.7568">
        <ele>1203</ele>
        <time>2021-08-20T17:24:47Z</time>
      </trkpt>
      <trkpt lat="42.91421" lon="0.75675">
        <ele>1203</ele>
        <time>2021-08-20T17:24:48Z</time>
      </trkpt>
      <trkpt lat="42.91447" lon="0.75644">
        <ele>1203</ele>
        <time>2021-08-20T17:24:54Z</time>
      </trkpt>
      <trkpt lat="42.9146" lon="0.75624">
        <ele>1203</ele>
        <time>2021-08-20T17:24:58Z</time>
      </trkpt>
      <trkpt lat="42.91477" lon="0.7559">
        <ele>1202</ele>
        <time>2021-08-20T17:25:03Z</time>
      </trkpt>
      <trkpt lat="42.91481" lon="0.75587">
        <ele>1203</ele>
        <time>2021-08-20T17:25:04Z</time>
      </trkpt>
      <trkpt lat="42.91488" lon="0.75589">
        <ele>1205</ele>
        <time>2021-08-20T17:25:05Z</time>
      </trkpt>
      <trkpt lat="42.91491" lon="0.75592">
        <ele>1206</ele>
        <time>2021-08-20T17:25:06Z</time>
      </trkpt>
      <trkpt lat="42.91492" lon="0.75601">
        <ele>1208</ele>
        <time>2021-08-20T17:25:07Z</time>
      </trkpt>
      <trkpt lat="42.91485" lon="0.75631">
        <ele>1210</ele>
        <time>2021-08-20T17:25:11Z</time>
      </trkpt>
      <trkpt lat="42.91481" lon="0.75677">
        <ele>1217</ele>
        <time>2021-08-20T17:25:17Z</time>
      </trkpt>
      <trkpt lat="42.91479" lon="0.75688">
        <ele>1219</ele>
        <time>2021-08-20T17:25:19Z</time>
      </trkpt>
      <trkpt lat="42.91468" lon="0.75714">
        <ele>1222</ele>
        <time>2021-08-20T17:25:23Z</time>
      </trkpt>
      <trkpt lat="42.91468" lon="0.75723">
        <ele>1224</ele>
        <time>2021-08-20T17:25:24Z</time>
      </trkpt>
      <trkpt lat="42.91469" lon="0.75725">
        <ele>1225</ele>
        <time>2021-08-20T17:25:24Z</time>
      </trkpt>
      <trkpt lat="42.91472" lon="0.75728">
        <ele>1226</ele>
        <time>2021-08-20T17:25:25Z</time>
      </trkpt>
      <trkpt lat="42.91476" lon="0.7573">
        <ele>1228</ele>
        <time>2021-08-20T17:25:25Z</time>
      </trkpt>
      <trkpt lat="42.91485" lon="0.75724">
        <ele>1229</ele>
        <time>2021-08-20T17:25:27Z</time>
      </trkpt>
      <trkpt lat="42.9151" lon="0.75673">
        <ele>1222</ele>
        <time>2021-08-20T17:25:35Z</time>
      </trkpt>
      <trkpt lat="42.91516" lon="0.75665">
        <ele>1220</ele>
        <time>2021-08-20T17:25:37Z</time>
      </trkpt>
      <trkpt lat="42.91527" lon="0.75658">
        <ele>1220</ele>
        <time>2021-08-20T17:25:39Z</time>
      </trkpt>
      <trkpt lat="42.91534" lon="0.75658">
        <ele>1221</ele>
        <time>2021-08-20T17:25:40Z</time>
      </trkpt>
      <trkpt lat="42.91541" lon="0.75661">
        <ele>1222</ele>
        <time>2021-08-20T17:25:41Z</time>
      </trkpt>
      <trkpt lat="42.91548" lon="0.75665">
        <ele>1224</ele>
        <time>2021-08-20T17:25:43Z</time>
      </trkpt>
      <trkpt lat="42.91554" lon="0.75673">
        <ele>1226</ele>
        <time>2021-08-20T17:25:44Z</time>
      </trkpt>
      <trkpt lat="42.91584" lon="0.75719">
        <ele>1242</ele>
        <time>2021-08-20T17:25:52Z</time>
      </trkpt>
      <trkpt lat="42.91595" lon="0.75733">
        <ele>1247</ele>
        <time>2021-08-20T17:25:55Z</time>
      </trkpt>
      <trkpt lat="42.91616" lon="0.75752">
        <ele>1251</ele>
        <time>2021-08-20T17:26:00Z</time>
      </trkpt>
      <trkpt lat="42.91626" lon="0.75757">
        <ele>1253</ele>
        <time>2021-08-20T17:26:01Z</time>
      </trkpt>
      <trkpt lat="42.91646" lon="0.75764">
        <ele>1254</ele>
        <time>2021-08-20T17:26:05Z</time>
      </trkpt>
      <trkpt lat="42.91655" lon="0.75765">
        <ele>1254</ele>
        <time>2021-08-20T17:26:07Z</time>
      </trkpt>
      <trkpt lat="42.9167" lon="0.75762">
        <ele>1254</ele>
        <time>2021-08-20T17:26:09Z</time>
      </trkpt>
      <trkpt lat="42.91681" lon="0.75754">
        <ele>1257</ele>
        <time>2021-08-20T17:26:12Z</time>
      </trkpt>
      <trkpt lat="42.91686" lon="0.75743">
        <ele>1257</ele>
        <time>2021-08-20T17:26:13Z</time>
      </trkpt>
      <trkpt lat="42.91686" lon="0.7573">
        <ele>1257</ele>
        <time>2021-08-20T17:26:15Z</time>
      </trkpt>
      <trkpt lat="42.9168" lon="0.75698">
        <ele>1253</ele>
        <time>2021-08-20T17:26:19Z</time>
      </trkpt>
      <trkpt lat="42.91679" lon="0.75622">
        <ele>1249</ele>
        <time>2021-08-20T17:26:29Z</time>
      </trkpt>
      <trkpt lat="42.91683" lon="0.7561">
        <ele>1250</ele>
        <time>2021-08-20T17:26:31Z</time>
      </trkpt>
      <trkpt lat="42.91689" lon="0.75609">
        <ele>1252</ele>
        <time>2021-08-20T17:26:32Z</time>
      </trkpt>
      <trkpt lat="42.91696" lon="0.75615">
        <ele>1256</ele>
        <time>2021-08-20T17:26:33Z</time>
      </trkpt>
      <trkpt lat="42.91698" lon="0.75626">
        <ele>1258</ele>
        <time>2021-08-20T17:26:35Z</time>
      </trkpt>
      <trkpt lat="42.91694" lon="0.75661">
        <ele>1258</ele>
        <time>2021-08-20T17:26:40Z</time>
      </trkpt>
      <trkpt lat="42.91694" lon="0.75673">
        <ele>1259</ele>
        <time>2021-08-20T17:26:41Z</time>
      </trkpt>
      <trkpt lat="42.91699" lon="0.75695">
        <ele>1262</ele>
        <time>2021-08-20T17:26:44Z</time>
      </trkpt>
      <trkpt lat="42.91705" lon="0.75711">
        <ele>1265</ele>
        <time>2021-08-20T17:26:46Z</time>
      </trkpt>
      <trkpt lat="42.91719" lon="0.75738">
        <ele>1271</ele>
        <time>2021-08-20T17:26:51Z</time>
      </trkpt>
      <trkpt lat="42.91746" lon="0.75786">
        <ele>1279</ele>
        <time>2021-08-20T17:26:59Z</time>
      </trkpt>
      <trkpt lat="42.9175" lon="0.75798">
        <ele>1280</ele>
        <time>2021-08-20T17:27:00Z</time>
      </trkpt>
      <trkpt lat="42.91753" lon="0.7581">
        <ele>1280</ele>
        <time>2021-08-20T17:27:02Z</time>
      </trkpt>
      <trkpt lat="42.91753" lon="0.75839">
        <ele>1280</ele>
        <time>2021-08-20T17:27:06Z</time>
      </trkpt>
      <trkpt lat="42.91755" lon="0.75846">
        <ele>1282</ele>
        <time>2021-08-20T17:27:07Z</time>
      </trkpt>
      <trkpt lat="42.91758" lon="0.75851">
        <ele>1285</ele>
        <time>2021-08-20T17:27:08Z</time>
      </trkpt>
      <trkpt lat="42.91765" lon="0.75855">
        <ele>1288</ele>
        <time>2021-08-20T17:27:09Z</time>
      </trkpt>
      <trkpt lat="42.9177" lon="0.75854">
        <ele>1290</ele>
        <time>2021-08-20T17:27:10Z</time>
      </trkpt>
      <trkpt lat="42.91772" lon="0.75851">
        <ele>1290</ele>
        <time>2021-08-20T17:27:10Z</time>
      </trkpt>
      <trkpt lat="42.91775" lon="0.75845">
        <ele>1289</ele>
        <time>2021-08-20T17:27:11Z</time>
      </trkpt>
      <trkpt lat="42.91773" lon="0.75825">
        <ele>1287</ele>
        <time>2021-08-20T17:27:14Z</time>
      </trkpt>
      <trkpt lat="42.91767" lon="0.75789">
        <ele>1288</ele>
        <time>2021-08-20T17:27:19Z</time>
      </trkpt>
      <trkpt lat="42.91756" lon="0.75759">
        <ele>1286</ele>
        <time>2021-08-20T17:27:23Z</time>
      </trkpt>
      <trkpt lat="42.91757" lon="0.75751">
        <ele>1287</ele>
        <time>2021-08-20T17:27:24Z</time>
      </trkpt>
      <trkpt lat="42.9176" lon="0.75747">
        <ele>1289</ele>
        <time>2021-08-20T17:27:25Z</time>
      </trkpt>
      <trkpt lat="42.91767" lon="0.75746">
        <ele>1293</ele>
        <time>2021-08-20T17:27:26Z</time>
      </trkpt>
      <trkpt lat="42.91771" lon="0.75748">
        <ele>1295</ele>
        <time>2021-08-20T17:27:27Z</time>
      </trkpt>
      <trkpt lat="42.91774" lon="0.75752">
        <ele>1296</ele>
        <time>2021-08-20T17:27:28Z</time>
      </trkpt>
      <trkpt lat="42.91776" lon="0.75759">
        <ele>1296</ele>
        <time>2021-08-20T17:27:29Z</time>
      </trkpt>
      <trkpt lat="42.9178" lon="0.7578">
        <ele>1296</ele>
        <time>2021-08-20T17:27:32Z</time>
      </trkpt>
      <trkpt lat="42.91803" lon="0.7587">
        <ele>1302</ele>
        <time>2021-08-20T17:27:44Z</time>
      </trkpt>
      <trkpt lat="42.91806" lon="0.75911">
        <ele>1305</ele>
        <time>2021-08-20T17:27:49Z</time>
      </trkpt>
      <trkpt lat="42.91812" lon="0.75921">
        <ele>1307</ele>
        <time>2021-08-20T17:27:51Z</time>
      </trkpt>
      <trkpt lat="42.91816" lon="0.75922">
        <ele>1308</ele>
        <time>2021-08-20T17:27:52Z</time>
      </trkpt>
      <trkpt lat="42.91823" lon="0.75918">
        <ele>1307</ele>
        <time>2021-08-20T17:27:53Z</time>
      </trkpt>
      <trkpt lat="42.91825" lon="0.75908">
        <ele>1307</ele>
        <time>2021-08-20T17:27:54Z</time>
      </trkpt>
      <trkpt lat="42.91816" lon="0.75863">
        <ele>1305</ele>
        <time>2021-08-20T17:28:00Z</time>
      </trkpt>
      <trkpt lat="42.91814" lon="0.75847">
        <ele>1304</ele>
        <time>2021-08-20T17:28:03Z</time>
      </trkpt>
      <trkpt lat="42.91814" lon="0.758">
        <ele>1309</ele>
        <time>2021-08-20T17:28:09Z</time>
      </trkpt>
      <trkpt lat="42.91812" lon="0.75788">
        <ele>1310</ele>
        <time>2021-08-20T17:28:10Z</time>
      </trkpt>
      <trkpt lat="42.91807" lon="0.75773">
        <ele>1311</ele>
        <time>2021-08-20T17:28:12Z</time>
      </trkpt>
      <trkpt lat="42.91798" lon="0.75751">
        <ele>1309</ele>
        <time>2021-08-20T17:28:16Z</time>
      </trkpt>
      <trkpt lat="42.91771" lon="0.75698">
        <ele>1296</ele>
        <time>2021-08-20T17:28:24Z</time>
      </trkpt>
      <trkpt lat="42.91766" lon="0.75686">
        <ele>1294</ele>
        <time>2021-08-20T17:28:26Z</time>
      </trkpt>
      <trkpt lat="42.91765" lon="0.75678">
        <ele>1294</ele>
        <time>2021-08-20T17:28:27Z</time>
      </trkpt>
      <trkpt lat="42.91766" lon="0.75672">
        <ele>1295</ele>
        <time>2021-08-20T17:28:28Z</time>
      </trkpt>
      <trkpt lat="42.9177" lon="0.75668">
        <ele>1297</ele>
        <time>2021-08-20T17:28:29Z</time>
      </trkpt>
      <trkpt lat="42.91777" lon="0.75668">
        <ele>1300</ele>
        <time>2021-08-20T17:28:30Z</time>
      </trkpt>
      <trkpt lat="42.91783" lon="0.75676">
        <ele>1303</ele>
        <time>2021-08-20T17:28:31Z</time>
      </trkpt>
      <trkpt lat="42.91787" lon="0.75695">
        <ele>1305</ele>
        <time>2021-08-20T17:28:34Z</time>
      </trkpt>
      <trkpt lat="42.91802" lon="0.75723">
        <ele>1312</ele>
        <time>2021-08-20T17:28:39Z</time>
      </trkpt>
      <trkpt lat="42.91833" lon="0.75761">
        <ele>1326</ele>
        <time>2021-08-20T17:28:46Z</time>
      </trkpt>
      <trkpt lat="42.9185" lon="0.75784">
        <ele>1330</ele>
        <time>2021-08-20T17:28:50Z</time>
      </trkpt>
      <trkpt lat="42.91855" lon="0.75797">
        <ele>1330</ele>
        <time>2021-08-20T17:28:52Z</time>
      </trkpt>
      <trkpt lat="42.91867" lon="0.75838">
        <ele>1329</ele>
        <time>2021-08-20T17:28:58Z</time>
      </trkpt>
      <trkpt lat="42.91873" lon="0.7585">
        <ele>1331</ele>
        <time>2021-08-20T17:29:00Z</time>
      </trkpt>
      <trkpt lat="42.91878" lon="0.75859">
        <ele>1333</ele>
        <time>2021-08-20T17:29:01Z</time>
      </trkpt>
      <trkpt lat="42.91905" lon="0.75896">
        <ele>1342</ele>
        <time>2021-08-20T17:29:08Z</time>
      </trkpt>
      <trkpt lat="42.91907" lon="0.75905">
        <ele>1341</ele>
        <time>2021-08-20T17:29:09Z</time>
      </trkpt>
      <trkpt lat="42.91907" lon="0.75928">
        <ele>1341</ele>
        <time>2021-08-20T17:29:12Z</time>
      </trkpt>
      <trkpt lat="42.919" lon="0.75978">
        <ele>1342</ele>
        <time>2021-08-20T17:29:19Z</time>
      </trkpt>
      <trkpt lat="42.91899" lon="0.76012">
        <ele>1344</ele>
        <time>2021-08-20T17:29:23Z</time>
      </trkpt>
      <trkpt lat="42.91899" lon="0.7603">
        <ele>1347</ele>
        <time>2021-08-20T17:29:26Z</time>
      </trkpt>
      <trkpt lat="42.91901" lon="0.76047">
        <ele>1349</ele>
        <time>2021-08-20T17:29:28Z</time>
      </trkpt>
      <trkpt lat="42.91919" lon="0.76127">
        <ele>1357</ele>
        <time>2021-08-20T17:29:39Z</time>
      </trkpt>
      <trkpt lat="42.91926" lon="0.76154">
        <ele>1359</ele>
        <time>2021-08-20T17:29:43Z</time>
      </trkpt>
      <trkpt lat="42.91935" lon="0.76179">
        <ele>1360</ele>
        <time>2021-08-20T17:29:46Z</time>
      </trkpt>
      <trkpt lat="42.91937" lon="0.7619">
        <ele>1360</ele>
        <time>2021-08-20T17:29:48Z</time>
      </trkpt>
      <trkpt lat="42.91939" lon="0.76198">
        <ele>1360</ele>
        <time>2021-08-20T17:29:49Z</time>
      </trkpt>
      <trkpt lat="42.91939" lon="0.76226">
        <ele>1359</ele>
        <time>2021-08-20T17:29:52Z</time>
      </trkpt>
      <trkpt lat="42.91924" lon="0.76346">
        <ele>1353</ele>
        <time>2021-08-20T17:30:08Z</time>
      </trkpt>
      <trkpt lat="42.91922" lon="0.76367">
        <ele>1351</ele>
        <time>2021-08-20T17:30:11Z</time>
      </trkpt>
      <trkpt lat="42.91919" lon="0.76406">
        <ele>1349</ele>
        <time>2021-08-20T17:30:16Z</time>
      </trkpt>
      <trkpt lat="42.91911" lon="0.76471">
        <ele>1346</ele>
        <time>2021-08-20T17:30:25Z</time>
      </trkpt>
    </trkseg>
  </trk>
</gpx>